sensor_id;sensor_type;location;lat;lon;timestamp;pressure;altitude;pressure_sealevel;temperature;humidity
42761;BME280;31672;47.638;19.026;2023-06-26T00:05:04;99996.13;;;18.28;76.68
42761;BME280;31672;47.638;19.026;2023-06-26T00:10:08;99996.03;;;18.16;76.98
42761;BME280;31672;47.638;19.026;2023-06-26T00:15:13;99995.59;;;18.01;77.97
42761;BME280;31672;47.638;19.026;2023-06-26T00:20:17;99993.09;;;17.99;78.12
42761;BME280;31672;47.638;19.026;2023-06-26T00:25:22;99992.75;;;17.96;77.88
42761;BME280;31672;47.638;19.026;2023-06-26T00:30:26;99995.84;;;17.92;78.33
42761;BME280;31672;47.638;19.026;2023-06-26T00:35:30;99997.34;;;17.88;78.33
42761;BME280;31672;47.638;19.026;2023-06-26T00:40:34;99998.41;;;17.87;78.24
42761;BME280;31672;47.638;19.026;2023-06-26T00:45:37;100000.31;;;17.80;77.93
42761;BME280;31672;47.638;19.026;2023-06-26T00:50:46;99999.31;;;17.75;77.82
42761;BME280;31672;47.638;19.026;2023-06-26T00:55:49;99992.31;;;17.67;77.86
42761;BME280;31672;47.638;19.026;2023-06-26T01:00:53;99981.00;;;17.65;79.14
42761;BME280;31672;47.638;19.026;2023-06-26T01:05:59;99982.91;;;17.58;79.00
42761;BME280;31672;47.638;19.026;2023-06-26T01:11:03;99980.47;;;17.50;79.54
42761;BME280;31672;47.638;19.026;2023-06-26T01:16:07;99982.84;;;17.39;80.15
42761;BME280;31672;47.638;19.026;2023-06-26T01:21:13;99979.81;;;17.29;80.65
42761;BME280;31672;47.638;19.026;2023-06-26T01:26:22;99972.00;;;17.21;81.35
42761;BME280;31672;47.638;19.026;2023-06-26T01:31:27;99971.63;;;17.18;81.88
42761;BME280;31672;47.638;19.026;2023-06-26T01:36:32;99963.78;;;17.16;81.95
42761;BME280;31672;47.638;19.026;2023-06-26T01:41:36;99965.44;;;17.17;81.88
42761;BME280;31672;47.638;19.026;2023-06-26T01:57:11;99965.25;;;17.12;82.29
42761;BME280;31672;47.638;19.026;2023-06-26T02:02:15;99969.22;;;17.03;82.54
42761;BME280;31672;47.638;19.026;2023-06-26T02:07:19;99962.50;;;16.87;82.30
42761;BME280;31672;47.638;19.026;2023-06-26T02:12:24;99972.50;;;16.73;83.38
42761;BME280;31672;47.638;19.026;2023-06-26T02:17:28;99979.91;;;16.65;84.06
42761;BME280;31672;47.638;19.026;2023-06-26T02:22:31;99979.94;;;16.58;84.42
42761;BME280;31672;47.638;19.026;2023-06-26T02:27:35;99974.81;;;16.50;85.41
42761;BME280;31672;47.638;19.026;2023-06-26T02:32:37;99982.03;;;16.49;86.68
42761;BME280;31672;47.638;19.026;2023-06-26T02:37:40;99985.94;;;16.47;88.07
42761;BME280;31672;47.638;19.026;2023-06-26T02:42:42;99987.63;;;16.41;88.95
42761;BME280;31672;47.638;19.026;2023-06-26T02:47:44;99990.50;;;16.46;89.33
42761;BME280;31672;47.638;19.026;2023-06-26T02:52:47;99990.72;;;16.45;88.85
42761;BME280;31672;47.638;19.026;2023-06-26T02:57:52;99997.53;;;16.41;88.64
42761;BME280;31672;47.638;19.026;2023-06-26T03:02:55;99996.72;;;16.40;88.88
42761;BME280;31672;47.638;19.026;2023-06-26T03:07:57;100000.00;;;16.42;88.54
42761;BME280;31672;47.638;19.026;2023-06-26T03:13:00;100003.50;;;16.43;88.95
42761;BME280;31672;47.638;19.026;2023-06-26T03:18:02;100016.31;;;16.41;89.20
42761;BME280;31672;47.638;19.026;2023-06-26T03:23:04;100017.13;;;16.35;90.24
42761;BME280;31672;47.638;19.026;2023-06-26T03:28:08;100016.34;;;16.21;91.58
42761;BME280;31672;47.638;19.026;2023-06-26T03:33:12;100018.59;;;16.17;91.92
42761;BME280;31672;47.638;19.026;2023-06-26T03:38:15;100014.88;;;16.18;92.98
42761;BME280;31672;47.638;19.026;2023-06-26T03:43:19;100006.03;;;16.18;93.05
42761;BME280;31672;47.638;19.026;2023-06-26T03:48:22;100006.84;;;16.18;93.94
42761;BME280;31672;47.638;19.026;2023-06-26T03:53:26;100004.38;;;16.23;95.06
42761;BME280;31672;47.638;19.026;2023-06-26T03:58:30;100001.47;;;16.31;95.86
42761;BME280;31672;47.638;19.026;2023-06-26T04:03:34;100006.81;;;16.45;95.87
42761;BME280;31672;47.638;19.026;2023-06-26T04:08:37;100012.13;;;16.58;94.78
42761;BME280;31672;47.638;19.026;2023-06-26T04:13:41;100013.75;;;16.72;93.75
42761;BME280;31672;47.638;19.026;2023-06-26T04:18:45;100019.72;;;16.81;91.03
42761;BME280;31672;47.638;19.026;2023-06-26T04:23:52;100013.25;;;16.95;89.38
42761;BME280;31672;47.638;19.026;2023-06-26T04:28:57;100005.59;;;16.99;89.11
42761;BME280;31672;47.638;19.026;2023-06-26T04:34:01;100005.56;;;17.05;88.88
42761;BME280;31672;47.638;19.026;2023-06-26T04:39:04;100007.25;;;17.31;88.86
42761;BME280;31672;47.638;19.026;2023-06-26T04:44:08;100012.00;;;17.61;88.23
42761;BME280;31672;47.638;19.026;2023-06-26T04:49:13;100008.13;;;17.88;88.16
42761;BME280;31672;47.638;19.026;2023-06-26T04:54:17;100009.72;;;18.14;88.08
42761;BME280;31672;47.638;19.026;2023-06-26T04:59:20;100022.00;;;18.47;87.65
42761;BME280;31672;47.638;19.026;2023-06-26T05:04:24;100020.69;;;18.75;85.92
42761;BME280;31672;47.638;19.026;2023-06-26T05:09:28;100015.81;;;19.02;85.51
42761;BME280;31672;47.638;19.026;2023-06-26T05:14:31;100018.50;;;19.32;84.74
42761;BME280;31672;47.638;19.026;2023-06-26T05:19:35;100011.50;;;19.54;83.76
42761;BME280;31672;47.638;19.026;2023-06-26T05:24:39;100005.03;;;19.73;82.59
42761;BME280;31672;47.638;19.026;2023-06-26T05:29:43;100005.97;;;19.91;80.12
42761;BME280;31672;47.638;19.026;2023-06-26T05:34:48;100020.53;;;20.01;81.14
42761;BME280;31672;47.638;19.026;2023-06-26T05:39:52;100017.38;;;20.16;81.38
42761;BME280;31672;47.638;19.026;2023-06-26T05:44:56;100016.75;;;20.26;79.99
42761;BME280;31672;47.638;19.026;2023-06-26T05:50:00;100020.38;;;20.43;78.49
42761;BME280;31672;47.638;19.026;2023-06-26T05:55:05;100020.16;;;20.56;76.24
42761;BME280;31672;47.638;19.026;2023-06-26T06:00:10;100014.16;;;20.66;76.28
42761;BME280;31672;47.638;19.026;2023-06-26T06:05:14;100003.09;;;20.79;77.31
42761;BME280;31672;47.638;19.026;2023-06-26T06:10:17;100001.72;;;21.05;77.41
42761;BME280;31672;47.638;19.026;2023-06-26T06:15:21;100005.97;;;21.30;76.01
42761;BME280;31672;47.638;19.026;2023-06-26T06:20:25;100006.34;;;21.50;74.33
42761;BME280;31672;47.638;19.026;2023-06-26T06:25:29;100005.03;;;21.70;72.59
42761;BME280;31672;47.638;19.026;2023-06-26T06:30:36;100002.66;;;21.90;71.49
42761;BME280;31672;47.638;19.026;2023-06-26T06:35:48;100008.41;;;22.10;70.13
42761;BME280;31672;47.638;19.026;2023-06-26T06:40:51;99987.22;;;22.24;69.43
42761;BME280;31672;47.638;19.026;2023-06-26T06:45:55;100005.81;;;22.59;67.44
42761;BME280;31672;47.638;19.026;2023-06-26T06:50:59;100000.69;;;22.85;64.01
42761;BME280;31672;47.638;19.026;2023-06-26T06:56:02;99999.63;;;23.08;62.75
42761;BME280;31672;47.638;19.026;2023-06-26T07:01:06;100005.63;;;23.37;62.18
42761;BME280;31672;47.638;19.026;2023-06-26T07:06:10;100003.66;;;23.59;59.55
42761;BME280;31672;47.638;19.026;2023-06-26T07:11:13;99991.34;;;23.73;58.80
42761;BME280;31672;47.638;19.026;2023-06-26T07:16:17;99996.84;;;23.84;57.10
42761;BME280;31672;47.638;19.026;2023-06-26T07:21:21;99985.81;;;23.95;57.47
42761;BME280;31672;47.638;19.026;2023-06-26T07:26:28;99982.63;;;24.09;56.72
42761;BME280;31672;47.638;19.026;2023-06-26T07:31:47;99991.09;;;24.17;56.41
42761;BME280;31672;47.638;19.026;2023-06-26T07:36:52;99990.94;;;24.34;55.05
42761;BME280;31672;47.638;19.026;2023-06-26T07:41:56;99995.63;;;24.44;54.91
42761;BME280;31672;47.638;19.026;2023-06-26T07:47:02;99981.50;;;24.47;55.11
42761;BME280;31672;47.638;19.026;2023-06-26T07:52:07;99984.84;;;24.59;54.47
42761;BME280;31672;47.638;19.026;2023-06-26T07:57:13;99979.13;;;24.61;53.90
42761;BME280;31672;47.638;19.026;2023-06-26T08:02:17;99982.13;;;24.69;53.83
42761;BME280;31672;47.638;19.026;2023-06-26T08:07:21;99994.72;;;24.91;53.80
42761;BME280;31672;47.638;19.026;2023-06-26T08:12:24;99984.22;;;25.15;53.76
42761;BME280;31672;47.638;19.026;2023-06-26T08:17:28;99993.75;;;25.38;53.12
42761;BME280;31672;47.638;19.026;2023-06-26T08:22:33;99986.97;;;25.55;53.47
42761;BME280;31672;47.638;19.026;2023-06-26T08:27:36;99995.13;;;25.71;51.59
42761;BME280;31672;47.638;19.026;2023-06-26T08:32:40;99981.28;;;25.82;51.72
42761;BME280;31672;47.638;19.026;2023-06-26T08:37:44;99988.06;;;25.95;51.00
42761;BME280;31672;47.638;19.026;2023-06-26T08:42:48;99987.81;;;25.92;49.63
42761;BME280;31672;47.638;19.026;2023-06-26T08:48:00;99985.63;;;25.83;49.93
42761;BME280;31672;47.638;19.026;2023-06-26T08:58:15;99980.69;;;26.11;50.39
42761;BME280;31672;47.638;19.026;2023-06-26T09:03:20;99971.41;;;26.27;49.31
42761;BME280;31672;47.638;19.026;2023-06-26T09:08:24;99977.38;;;26.19;49.08
42761;BME280;31672;47.638;19.026;2023-06-26T09:13:31;99981.22;;;26.13;49.28
42761;BME280;31672;47.638;19.026;2023-06-26T09:18:36;99976.34;;;26.00;48.83
42761;BME280;31672;47.638;19.026;2023-06-26T09:23:40;99978.78;;;26.01;48.52
42761;BME280;31672;47.638;19.026;2023-06-26T09:28:45;99973.63;;;26.00;48.24
42761;BME280;31672;47.638;19.026;2023-06-26T09:33:58;99969.81;;;26.06;48.39
42761;BME280;31672;47.638;19.026;2023-06-26T09:39:04;99955.59;;;26.19;48.41
42761;BME280;31672;47.638;19.026;2023-06-26T09:44:13;99965.09;;;26.42;47.55
42761;BME280;31672;47.638;19.026;2023-06-26T09:49:18;99966.09;;;26.61;45.91
42761;BME280;31672;47.638;19.026;2023-06-26T09:54:22;99955.41;;;26.75;46.79
42761;BME280;31672;47.638;19.026;2023-06-26T09:59:26;99954.09;;;27.17;46.75
42761;BME280;31672;47.638;19.026;2023-06-26T10:04:30;99952.84;;;27.38;45.33
42761;BME280;31672;47.638;19.026;2023-06-26T10:09:38;99948.22;;;27.68;44.49
42761;BME280;31672;47.638;19.026;2023-06-26T10:14:44;99946.75;;;27.46;43.67
42761;BME280;31672;47.638;19.026;2023-06-26T10:19:50;99953.06;;;27.08;46.25
42761;BME280;31672;47.638;19.026;2023-06-26T10:24:59;99945.88;;;26.73;46.90
42761;BME280;31672;47.638;19.026;2023-06-26T10:30:13;99942.19;;;26.43;47.35
42761;BME280;31672;47.638;19.026;2023-06-26T10:35:18;99940.34;;;26.23;47.63
42761;BME280;31672;47.638;19.026;2023-06-26T10:40:26;99934.91;;;26.23;48.06
42761;BME280;31672;47.638;19.026;2023-06-26T10:45:29;99944.31;;;26.56;47.78
42761;BME280;31672;47.638;19.026;2023-06-26T10:50:34;99940.84;;;26.95;47.52
42761;BME280;31672;47.638;19.026;2023-06-26T10:55:55;99941.44;;;27.31;44.97
42761;BME280;31672;47.638;19.026;2023-06-26T11:01:24;99936.34;;;27.54;45.26
42761;BME280;31672;47.638;19.026;2023-06-26T11:06:29;99928.28;;;27.72;42.57
42761;BME280;31672;47.638;19.026;2023-06-26T11:17:03;99910.16;;;28.30;41.22
42761;BME280;31672;47.638;19.026;2023-06-26T11:22:06;99908.66;;;28.42;43.48
42761;BME280;31672;47.638;19.026;2023-06-26T11:27:10;99907.72;;;28.52;43.54
42761;BME280;31672;47.638;19.026;2023-06-26T11:32:14;99910.25;;;28.67;43.11
42761;BME280;31672;47.638;19.026;2023-06-26T11:37:17;99911.88;;;28.87;42.47
42761;BME280;31672;47.638;19.026;2023-06-26T11:42:21;99901.47;;;28.70;42.32
42761;BME280;31672;47.638;19.026;2023-06-26T11:47:25;99905.91;;;28.85;42.48
42761;BME280;31672;47.638;19.026;2023-06-26T11:52:29;99904.56;;;28.83;40.82
42761;BME280;31672;47.638;19.026;2023-06-26T11:57:33;99901.22;;;28.48;41.35
42761;BME280;31672;47.638;19.026;2023-06-26T12:02:36;99901.16;;;28.29;40.61
42761;BME280;31672;47.638;19.026;2023-06-26T12:07:43;99904.34;;;27.88;41.34
42761;BME280;31672;47.638;19.026;2023-06-26T12:12:47;99905.44;;;27.58;43.09
42761;BME280;31672;47.638;19.026;2023-06-26T12:17:50;99900.50;;;27.65;43.46
42761;BME280;31672;47.638;19.026;2023-06-26T12:22:54;99897.41;;;28.25;42.93
42761;BME280;31672;47.638;19.026;2023-06-26T12:27:57;99893.22;;;28.94;40.98
42761;BME280;31672;47.638;19.026;2023-06-26T12:33:01;99895.09;;;29.64;39.31
42761;BME280;31672;47.638;19.026;2023-06-26T12:38:07;99889.44;;;30.43;39.44
42761;BME280;31672;47.638;19.026;2023-06-26T12:43:23;99893.41;;;30.87;38.28
42761;BME280;31672;47.638;19.026;2023-06-26T12:48:43;99890.44;;;31.20;38.03
42761;BME280;31672;47.638;19.026;2023-06-26T12:53:49;99873.88;;;31.56;36.47
42761;BME280;31672;47.638;19.026;2023-06-26T12:58:53;99880.03;;;31.61;36.02
42761;BME280;31672;47.638;19.026;2023-06-26T13:03:56;99882.00;;;31.69;34.64
42761;BME280;31672;47.638;19.026;2023-06-26T13:09:00;99879.84;;;31.58;36.25
42761;BME280;31672;47.638;19.026;2023-06-26T13:14:07;99871.47;;;31.32;36.22
42761;BME280;31672;47.638;19.026;2023-06-26T13:19:14;99881.06;;;30.98;37.41
42761;BME280;31672;47.638;19.026;2023-06-26T13:24:18;99872.75;;;31.12;36.86
42761;BME280;31672;47.638;19.026;2023-06-26T13:29:21;99875.06;;;31.41;36.51
42761;BME280;31672;47.638;19.026;2023-06-26T13:34:28;99868.19;;;31.83;35.99
42761;BME280;31672;47.638;19.026;2023-06-26T13:39:31;99862.66;;;32.32;35.58
42761;BME280;31672;47.638;19.026;2023-06-26T13:44:35;99856.91;;;32.42;35.60
42761;BME280;31672;47.638;19.026;2023-06-26T13:49:54;99861.69;;;32.19;35.16
42761;BME280;31672;47.638;19.026;2023-06-26T13:54:59;99860.06;;;31.38;35.44
42761;BME280;31672;47.638;19.026;2023-06-26T14:00:03;99856.84;;;31.00;36.60
42761;BME280;31672;47.638;19.026;2023-06-26T14:05:07;99851.94;;;30.88;35.68
42761;BME280;31672;47.638;19.026;2023-06-26T14:10:12;99849.88;;;30.58;35.68
42761;BME280;31672;47.638;19.026;2023-06-26T14:15:15;99847.09;;;30.08;36.19
42761;BME280;31672;47.638;19.026;2023-06-26T14:20:19;99845.19;;;29.53;37.43
42761;BME280;31672;47.638;19.026;2023-06-26T14:25:26;99849.59;;;29.49;37.73
42761;BME280;31672;47.638;19.026;2023-06-26T14:30:31;99849.31;;;29.51;38.84
42761;BME280;31672;47.638;19.026;2023-06-26T14:35:35;99855.94;;;29.31;39.05
42761;BME280;31672;47.638;19.026;2023-06-26T14:40:39;99849.69;;;29.44;39.16
42761;BME280;31672;47.638;19.026;2023-06-26T14:45:43;99846.28;;;29.80;38.02
42761;BME280;31672;47.638;19.026;2023-06-26T14:50:47;99843.50;;;30.13;36.74
42761;BME280;31672;47.638;19.026;2023-06-26T14:55:51;99838.75;;;30.41;36.78
42761;BME280;31672;47.638;19.026;2023-06-26T15:00:54;99835.84;;;30.73;36.56
42761;BME280;31672;47.638;19.026;2023-06-26T15:05:58;99826.19;;;31.21;36.43
42761;BME280;31672;47.638;19.026;2023-06-26T15:11:02;99825.34;;;31.42;34.55
42761;BME280;31672;47.638;19.026;2023-06-26T15:16:08;99812.56;;;31.38;34.16
42761;BME280;31672;47.638;19.026;2023-06-26T15:21:13;99813.13;;;31.57;36.06
42761;BME280;31672;47.638;19.026;2023-06-26T15:26:16;99807.66;;;31.97;34.02
42761;BME280;31672;47.638;19.026;2023-06-26T15:31:20;99798.78;;;32.17;34.31
42761;BME280;31672;47.638;19.026;2023-06-26T15:36:24;99800.09;;;32.29;33.21
42761;BME280;31672;47.638;19.026;2023-06-26T15:41:28;99801.72;;;32.38;32.60
42761;BME280;31672;47.638;19.026;2023-06-26T15:46:31;99797.19;;;32.68;33.37
42761;BME280;31672;47.638;19.026;2023-06-26T15:51:35;99794.28;;;32.99;31.85
42761;BME280;31672;47.638;19.026;2023-06-26T15:56:41;99786.97;;;33.12;31.84
42761;BME280;31672;47.638;19.026;2023-06-26T16:01:45;99789.50;;;33.26;31.09
42761;BME280;31672;47.638;19.026;2023-06-26T16:06:49;99787.09;;;33.24;30.82
42761;BME280;31672;47.638;19.026;2023-06-26T16:11:53;99781.31;;;33.09;30.62
42761;BME280;31672;47.638;19.026;2023-06-26T16:16:56;99786.84;;;32.91;31.94
42761;BME280;31672;47.638;19.026;2023-06-26T16:22:01;99788.34;;;32.63;30.26
42761;BME280;31672;47.638;19.026;2023-06-26T16:27:05;99781.00;;;32.23;32.04
42761;BME280;31672;47.638;19.026;2023-06-26T16:32:09;99785.56;;;31.71;32.77
42761;BME280;31672;47.638;19.026;2023-06-26T16:37:12;99786.25;;;31.37;33.16
42761;BME280;31672;47.638;19.026;2023-06-26T16:42:16;99787.63;;;30.72;33.46
42761;BME280;31672;47.638;19.026;2023-06-26T16:47:22;99781.16;;;30.18;34.87
42761;BME280;31672;47.638;19.026;2023-06-26T16:52:26;99785.44;;;30.10;34.16
42761;BME280;31672;47.638;19.026;2023-06-26T16:57:29;99775.50;;;29.87;34.57
42761;BME280;31672;47.638;19.026;2023-06-26T17:02:33;99777.34;;;29.78;35.42
42761;BME280;31672;47.638;19.026;2023-06-26T17:07:38;99777.53;;;29.81;36.12
42761;BME280;31672;47.638;19.026;2023-06-26T17:12:43;99779.16;;;29.69;36.38
42761;BME280;31672;47.638;19.026;2023-06-26T17:17:49;99772.94;;;29.49;36.01
42761;BME280;31672;47.638;19.026;2023-06-26T17:22:52;99784.28;;;29.29;36.58
42761;BME280;31672;47.638;19.026;2023-06-26T17:27:56;99784.22;;;29.01;37.16
42761;BME280;31672;47.638;19.026;2023-06-26T17:33:00;99774.31;;;28.73;38.75
42761;BME280;31672;47.638;19.026;2023-06-26T17:38:06;99782.75;;;28.39;40.71
42761;BME280;31672;47.638;19.026;2023-06-26T17:43:12;99774.84;;;27.94;42.24
42761;BME280;31672;47.638;19.026;2023-06-26T17:48:16;99782.38;;;27.60;43.43
42761;BME280;31672;47.638;19.026;2023-06-26T17:53:20;99786.50;;;27.28;44.52
42761;BME280;31672;47.638;19.026;2023-06-26T17:58:23;99784.81;;;27.03;45.90
42761;BME280;31672;47.638;19.026;2023-06-26T18:03:27;99783.13;;;26.78;46.75
42761;BME280;31672;47.638;19.026;2023-06-26T18:08:31;99789.88;;;26.52;47.87
42761;BME280;31672;47.638;19.026;2023-06-26T18:13:34;99788.66;;;26.24;48.53
42761;BME280;31672;47.638;19.026;2023-06-26T18:18:40;99800.50;;;25.94;49.12
42761;BME280;31672;47.638;19.026;2023-06-26T18:23:44;99800.06;;;25.56;50.20
42761;BME280;31672;47.638;19.026;2023-06-26T18:28:47;99792.00;;;25.10;51.31
42761;BME280;31672;47.638;19.026;2023-06-26T18:33:53;99810.47;;;24.77;51.95
42761;BME280;31672;47.638;19.026;2023-06-26T18:38:57;99820.44;;;24.46;52.31
42761;BME280;31672;47.638;19.026;2023-06-26T18:44:01;99823.59;;;24.18;52.98
42761;BME280;31672;47.638;19.026;2023-06-26T18:49:05;99825.38;;;23.92;53.06
42761;BME280;31672;47.638;19.026;2023-06-26T18:54:08;99818.50;;;23.64;52.68
42761;BME280;31672;47.638;19.026;2023-06-26T18:59:12;99839.28;;;23.53;52.23
42761;BME280;31672;47.638;19.026;2023-06-26T19:04:16;99847.28;;;23.38;52.00
42761;BME280;31672;47.638;19.026;2023-06-26T19:09:20;99845.00;;;23.19;51.94
42761;BME280;31672;47.638;19.026;2023-06-26T19:14:24;99845.16;;;23.08;51.74
42761;BME280;31672;47.638;19.026;2023-06-26T19:19:27;99844.84;;;22.99;51.58
42761;BME280;31672;47.638;19.026;2023-06-26T19:24:31;99849.59;;;22.87;51.37
42761;BME280;31672;47.638;19.026;2023-06-26T19:29:34;99836.47;;;22.74;50.56
42761;BME280;31672;47.638;19.026;2023-06-26T19:34:38;99858.69;;;22.76;50.23
42761;BME280;31672;47.638;19.026;2023-06-26T19:39:41;99853.75;;;22.73;52.73
42761;BME280;31672;47.638;19.026;2023-06-26T19:44:45;99863.78;;;22.72;53.94
42761;BME280;31672;47.638;19.026;2023-06-26T19:49:48;99864.44;;;22.57;54.62
42761;BME280;31672;47.638;19.026;2023-06-26T19:54:53;99857.97;;;22.36;54.97
42761;BME280;31672;47.638;19.026;2023-06-26T19:59:56;99857.59;;;22.06;56.03
42761;BME280;31672;47.638;19.026;2023-06-26T20:05:01;99862.19;;;21.83;56.26
42761;BME280;31672;47.638;19.026;2023-06-26T20:10:07;99873.25;;;21.65;56.75
42761;BME280;31672;47.638;19.026;2023-06-26T20:15:13;99864.78;;;21.40;58.51
42761;BME280;31672;47.638;19.026;2023-06-26T20:20:17;99863.78;;;21.29;59.05
42761;BME280;31672;47.638;19.026;2023-06-26T20:25:22;99853.06;;;21.17;58.85
42761;BME280;31672;47.638;19.026;2023-06-26T20:30:26;99859.66;;;21.09;59.53
42761;BME280;31672;47.638;19.026;2023-06-26T20:35:29;99863.59;;;21.02;60.17
42761;BME280;31672;47.638;19.026;2023-06-26T20:40:33;99863.75;;;20.95;60.07
42761;BME280;31672;47.638;19.026;2023-06-26T20:45:37;99850.06;;;20.85;60.24
42761;BME280;31672;47.638;19.026;2023-06-26T20:50:42;99856.53;;;20.84;61.19
42761;BME280;31672;47.638;19.026;2023-06-26T20:55:46;99858.50;;;20.72;62.23
42761;BME280;31672;47.638;19.026;2023-06-26T21:00:51;99863.13;;;20.60;62.45
42761;BME280;31672;47.638;19.026;2023-06-26T21:05:55;99861.72;;;20.57;63.24
42761;BME280;31672;47.638;19.026;2023-06-26T21:10:58;99852.81;;;20.45;63.76
42761;BME280;31672;47.638;19.026;2023-06-26T21:16:03;99849.22;;;20.39;64.64
42761;BME280;31672;47.638;19.026;2023-06-26T21:21:06;99847.94;;;20.30;64.69
42761;BME280;31672;47.638;19.026;2023-06-26T21:26:10;99855.84;;;20.20;65.39
42761;BME280;31672;47.638;19.026;2023-06-26T21:31:13;99850.72;;;20.07;65.13
42761;BME280;31672;47.638;19.026;2023-06-26T21:36:17;99863.75;;;19.98;66.10
42761;BME280;31672;47.638;19.026;2023-06-26T21:41:20;99863.66;;;19.93;66.33
42761;BME280;31672;47.638;19.026;2023-06-26T21:46:24;99863.91;;;19.80;66.39
42761;BME280;31672;47.638;19.026;2023-06-26T21:51:28;99855.00;;;19.67;67.14
42761;BME280;31672;47.638;19.026;2023-06-26T21:56:32;99861.19;;;19.56;67.64
42761;BME280;31672;47.638;19.026;2023-06-26T22:01:35;99857.19;;;19.47;68.13
42761;BME280;31672;47.638;19.026;2023-06-26T22:06:39;99859.31;;;19.33;68.99
42761;BME280;31672;47.638;19.026;2023-06-26T22:11:43;99860.81;;;19.17;69.66
42761;BME280;31672;47.638;19.026;2023-06-26T22:16:46;99850.00;;;19.06;69.62
42761;BME280;31672;47.638;19.026;2023-06-26T22:21:50;99850.81;;;18.94;70.51
42761;BME280;31672;47.638;19.026;2023-06-26T22:26:54;99850.19;;;18.81;70.87
42761;BME280;31672;47.638;19.026;2023-06-26T22:31:59;99854.72;;;18.68;71.47
42761;BME280;31672;47.638;19.026;2023-06-26T22:37:03;99846.56;;;18.57;71.88
42761;BME280;31672;47.638;19.026;2023-06-26T22:42:07;99844.56;;;18.52;72.43
42761;BME280;31672;47.638;19.026;2023-06-26T22:47:13;99839.28;;;18.45;72.44
42761;BME280;31672;47.638;19.026;2023-06-26T22:52:17;99839.47;;;18.32;73.39
42761;BME280;31672;47.638;19.026;2023-06-26T22:57:21;99840.06;;;18.16;74.79
42761;BME280;31672;47.638;19.026;2023-06-26T23:02:24;99837.72;;;17.89;75.16
42761;BME280;31672;47.638;19.026;2023-06-26T23:07:30;99849.22;;;17.78;75.94
42761;BME280;31672;47.638;19.026;2023-06-26T23:12:39;99828.59;;;17.72;75.81
42761;BME280;31672;47.638;19.026;2023-06-26T23:17:42;99825.47;;;17.75;75.66
42761;BME280;31672;47.638;19.026;2023-06-26T23:22:48;99820.13;;;17.75;75.25
42761;BME280;31672;47.638;19.026;2023-06-26T23:27:52;99820.75;;;17.71;76.05
42761;BME280;31672;47.638;19.026;2023-06-26T23:32:59;99827.09;;;17.58;76.21
42761;BME280;31672;47.638;19.026;2023-06-26T23:38:03;99824.91;;;17.48;76.52
42761;BME280;31672;47.638;19.026;2023-06-26T23:43:06;99822.22;;;17.48;77.32
42761;BME280;31672;47.638;19.026;2023-06-26T23:48:10;99814.44;;;17.40;78.12
42761;BME280;31672;47.638;19.026;2023-06-26T23:53:14;99816.75;;;17.36;78.95
42761;BME280;31672;47.638;19.026;2023-06-26T23:58:18;99814.50;;;17.33;79.08
